sensor_id;sensor_type;location;lat;lon;timestamp;temperature;humidity
67273;DHT22;54190;49.770;9.250;2022-08-19T00:01:19;19.50;99.90
67273;DHT22;54190;49.770;9.250;2022-08-19T00:03:45;19.50;99.90
67273;DHT22;54190;49.770;9.250;2022-08-19T00:06:11;19.60;99.90
67273;DHT22;54190;49.770;9.250;2022-08-19T00:08:37;19.60;99.90
67273;DHT22;54190;49.770;9.250;2022-08-19T00:11:03;19.60;99.90
67273;DHT22;54190;49.770;9.250;2022-08-19T00:13:29;19.60;99.90
67273;DHT22;54190;49.770;9.250;2022-08-19T00:15:55;19.70;99.90
67273;DHT22;54190;49.770;9.250;2022-08-19T00:18:21;19.70;99.90
67273;DHT22;54190;49.770;9.250;2022-08-19T00:20:47;19.70;99.90
67273;DHT22;54190;49.770;9.250;2022-08-19T00:23:13;19.70;99.90
67273;DHT22;54190;49.770;9.250;2022-08-19T00:25:40;19.70;99.90
67273;DHT22;54190;49.770;9.250;2022-08-19T00:28:06;19.70;99.90
67273;DHT22;54190;49.770;9.250;2022-08-19T00:30:32;19.60;99.90
67273;DHT22;54190;49.770;9.250;2022-08-19T00:32:58;19.60;99.90
67273;DHT22;54190;49.770;9.250;2022-08-19T00:35:24;19.50;99.90
67273;DHT22;54190;49.770;9.250;2022-08-19T00:37:52;19.50;99.90
67273;DHT22;54190;49.770;9.250;2022-08-19T00:40:19;19.50;99.90
67273;DHT22;54190;49.770;9.250;2022-08-19T00:42:46;19.50;99.90
67273;DHT22;54190;49.770;9.250;2022-08-19T00:45:17;19.50;99.90
67273;DHT22;54190;49.770;9.250;2022-08-19T00:47:44;19.50;99.90
67273;DHT22;54190;49.770;9.250;2022-08-19T00:50:11;19.50;99.90
67273;DHT22;54190;49.770;9.250;2022-08-19T00:52:42;19.50;99.90
67273;DHT22;54190;49.770;9.250;2022-08-19T00:55:13;19.50;99.90
67273;DHT22;54190;49.770;9.250;2022-08-19T00:57:43;19.60;99.90
67273;DHT22;54190;49.770;9.250;2022-08-19T01:00:13;19.60;99.90
67273;DHT22;54190;49.770;9.250;2022-08-19T01:02:40;19.60;99.90
67273;DHT22;54190;49.770;9.250;2022-08-19T01:05:10;19.60;99.90
67273;DHT22;54190;49.770;9.250;2022-08-19T01:07:38;19.50;99.90
67273;DHT22;54190;49.770;9.250;2022-08-19T01:10:08;19.40;99.90
67273;DHT22;54190;49.770;9.250;2022-08-19T01:12:34;19.40;99.90
67273;DHT22;54190;49.770;9.250;2022-08-19T01:15:00;19.40;99.90
67273;DHT22;54190;49.770;9.250;2022-08-19T01:17:27;19.40;99.90
67273;DHT22;54190;49.770;9.250;2022-08-19T01:19:52;19.50;99.90
67273;DHT22;54190;49.770;9.250;2022-08-19T01:22:26;19.50;99.90
67273;DHT22;54190;49.770;9.250;2022-08-19T01:24:53;19.50;99.90
67273;DHT22;54190;49.770;9.250;2022-08-19T01:27:18;19.50;99.90
67273;DHT22;54190;49.770;9.250;2022-08-19T01:29:45;19.40;99.90
67273;DHT22;54190;49.770;9.250;2022-08-19T01:32:13;19.40;99.90
67273;DHT22;54190;49.770;9.250;2022-08-19T01:34:40;19.40;99.90
67273;DHT22;54190;49.770;9.250;2022-08-19T01:37:08;19.40;99.90
67273;DHT22;54190;49.770;9.250;2022-08-19T01:39:37;19.30;99.90
67273;DHT22;54190;49.770;9.250;2022-08-19T01:42:04;19.40;99.90
67273;DHT22;54190;49.770;9.250;2022-08-19T01:44:30;19.40;99.90
67273;DHT22;54190;49.770;9.250;2022-08-19T01:46:56;19.30;99.90
67273;DHT22;54190;49.770;9.250;2022-08-19T01:49:23;19.40;99.90
67273;DHT22;54190;49.770;9.250;2022-08-19T01:51:50;19.30;99.90
67273;DHT22;54190;49.770;9.250;2022-08-19T01:54:18;19.40;99.90
67273;DHT22;54190;49.770;9.250;2022-08-19T01:56:44;19.40;99.90
67273;DHT22;54190;49.770;9.250;2022-08-19T01:59:13;19.30;99.90
67273;DHT22;54190;49.770;9.250;2022-08-19T02:01:40;19.40;99.90
67273;DHT22;54190;49.770;9.250;2022-08-19T02:04:05;19.40;99.90
67273;DHT22;54190;49.770;9.250;2022-08-19T02:06:31;19.40;99.90
67273;DHT22;54190;49.770;9.250;2022-08-19T02:08:58;19.30;99.90
67273;DHT22;54190;49.770;9.250;2022-08-19T02:11:27;19.30;99.90
67273;DHT22;54190;49.770;9.250;2022-08-19T02:13:54;19.30;99.90
67273;DHT22;54190;49.770;9.250;2022-08-19T02:16:20;19.30;99.90
67273;DHT22;54190;49.770;9.250;2022-08-19T02:18:46;19.40;99.90
67273;DHT22;54190;49.770;9.250;2022-08-19T02:21:15;19.40;99.90
67273;DHT22;54190;49.770;9.250;2022-08-19T02:23:42;19.40;99.90
67273;DHT22;54190;49.770;9.250;2022-08-19T02:26:08;19.50;99.90
67273;DHT22;54190;49.770;9.250;2022-08-19T02:28:34;19.50;99.90
67273;DHT22;54190;49.770;9.250;2022-08-19T02:31:00;19.50;99.90
67273;DHT22;54190;49.770;9.250;2022-08-19T02:33:28;19.40;99.90
67273;DHT22;54190;49.770;9.250;2022-08-19T02:35:54;19.40;99.90
67273;DHT22;54190;49.770;9.250;2022-08-19T02:38:19;19.40;99.90
67273;DHT22;54190;49.770;9.250;2022-08-19T02:41:00;19.40;99.90
67273;DHT22;54190;49.770;9.250;2022-08-19T02:43:27;19.40;99.90
67273;DHT22;54190;49.770;9.250;2022-08-19T02:45:54;19.40;99.90
67273;DHT22;54190;49.770;9.250;2022-08-19T02:48:22;19.40;99.90
67273;DHT22;54190;49.770;9.250;2022-08-19T02:50:49;19.40;99.90
67273;DHT22;54190;49.770;9.250;2022-08-19T02:53:23;19.40;99.90
67273;DHT22;54190;49.770;9.250;2022-08-19T02:55:50;19.40;99.90
67273;DHT22;54190;49.770;9.250;2022-08-19T02:58:16;19.40;99.90
67273;DHT22;54190;49.770;9.250;2022-08-19T03:00:50;19.30;99.90
67273;DHT22;54190;49.770;9.250;2022-08-19T03:03:17;19.30;99.90
67273;DHT22;54190;49.770;9.250;2022-08-19T03:05:43;19.40;99.90
67273;DHT22;54190;49.770;9.250;2022-08-19T03:08:10;19.40;99.90
67273;DHT22;54190;49.770;9.250;2022-08-19T03:10:47;19.30;99.90
67273;DHT22;54190;49.770;9.250;2022-08-19T03:13:14;19.40;99.90
67273;DHT22;54190;49.770;9.250;2022-08-19T03:15:46;19.40;99.90
67273;DHT22;54190;49.770;9.250;2022-08-19T03:18:13;19.50;99.90
67273;DHT22;54190;49.770;9.250;2022-08-19T03:20:47;19.50;99.90
67273;DHT22;54190;49.770;9.250;2022-08-19T03:23:14;19.50;99.90
67273;DHT22;54190;49.770;9.250;2022-08-19T03:25:42;19.50;99.90
67273;DHT22;54190;49.770;9.250;2022-08-19T03:28:11;19.50;99.90
67273;DHT22;54190;49.770;9.250;2022-08-19T03:30:37;19.50;99.90
67273;DHT22;54190;49.770;9.250;2022-08-19T03:33:05;19.40;99.90
67273;DHT22;54190;49.770;9.250;2022-08-19T03:35:31;19.40;99.90
67273;DHT22;54190;49.770;9.250;2022-08-19T03:37:58;19.40;99.90
67273;DHT22;54190;49.770;9.250;2022-08-19T03:40:25;19.30;99.90
67273;DHT22;54190;49.770;9.250;2022-08-19T03:42:50;19.30;99.90
67273;DHT22;54190;49.770;9.250;2022-08-19T03:45:16;19.30;99.90
67273;DHT22;54190;49.770;9.250;2022-08-19T03:47:42;19.30;99.90
67273;DHT22;54190;49.770;9.250;2022-08-19T03:50:08;19.30;99.90
67273;DHT22;54190;49.770;9.250;2022-08-19T03:52:34;19.30;99.90
67273;DHT22;54190;49.770;9.250;2022-08-19T03:55:01;19.30;99.90
67273;DHT22;54190;49.770;9.250;2022-08-19T03:57:28;19.20;99.90
67273;DHT22;54190;49.770;9.250;2022-08-19T03:59:54;19.30;99.90
67273;DHT22;54190;49.770;9.250;2022-08-19T04:02:20;19.30;99.90
67273;DHT22;54190;49.770;9.250;2022-08-19T04:04:46;19.30;99.90
67273;DHT22;54190;49.770;9.250;2022-08-19T04:07:13;19.30;99.90
67273;DHT22;54190;49.770;9.250;2022-08-19T04:09:43;19.30;99.90
67273;DHT22;54190;49.770;9.250;2022-08-19T04:12:09;19.30;99.90
67273;DHT22;54190;49.770;9.250;2022-08-19T04:14:35;19.20;99.90
67273;DHT22;54190;49.770;9.250;2022-08-19T04:17:02;19.30;99.90
67273;DHT22;54190;49.770;9.250;2022-08-19T04:19:30;19.30;99.90
67273;DHT22;54190;49.770;9.250;2022-08-19T04:21:56;19.30;99.90
67273;DHT22;54190;49.770;9.250;2022-08-19T04:24:22;19.40;99.90
67273;DHT22;54190;49.770;9.250;2022-08-19T04:26:49;19.30;99.90
67273;DHT22;54190;49.770;9.250;2022-08-19T04:29:17;19.30;99.90
67273;DHT22;54190;49.770;9.250;2022-08-19T04:31:45;19.30;99.90
67273;DHT22;54190;49.770;9.250;2022-08-19T04:34:13;19.30;99.90
67273;DHT22;54190;49.770;9.250;2022-08-19T04:36:41;19.30;99.90
67273;DHT22;54190;49.770;9.250;2022-08-19T04:39:09;19.30;99.90
67273;DHT22;54190;49.770;9.250;2022-08-19T04:41:36;19.40;99.90
67273;DHT22;54190;49.770;9.250;2022-08-19T04:44:20;19.40;99.90
67273;DHT22;54190;49.770;9.250;2022-08-19T04:46:48;19.40;99.90
67273;DHT22;54190;49.770;9.250;2022-08-19T04:49:15;19.50;99.90
67273;DHT22;54190;49.770;9.250;2022-08-19T04:51:43;19.50;99.90
67273;DHT22;54190;49.770;9.250;2022-08-19T04:54:09;19.50;99.90
67273;DHT22;54190;49.770;9.250;2022-08-19T04:56:35;19.50;99.90
67273;DHT22;54190;49.770;9.250;2022-08-19T04:59:01;19.50;99.90
67273;DHT22;54190;49.770;9.250;2022-08-19T05:01:32;19.50;99.90
67273;DHT22;54190;49.770;9.250;2022-08-19T05:04:00;19.40;99.90
67273;DHT22;54190;49.770;9.250;2022-08-19T05:06:26;19.40;99.90
67273;DHT22;54190;49.770;9.250;2022-08-19T05:08:52;19.40;99.90
67273;DHT22;54190;49.770;9.250;2022-08-19T05:11:27;19.40;99.90
67273;DHT22;54190;49.770;9.250;2022-08-19T05:13:54;19.40;99.90
67273;DHT22;54190;49.770;9.250;2022-08-19T05:16:22;19.30;99.90
67273;DHT22;54190;49.770;9.250;2022-08-19T05:18:48;19.40;99.90
67273;DHT22;54190;49.770;9.250;2022-08-19T05:21:33;19.40;99.90
67273;DHT22;54190;49.770;9.250;2022-08-19T05:24:19;19.40;99.90
67273;DHT22;54190;49.770;9.250;2022-08-19T05:26:49;19.40;99.90
67273;DHT22;54190;49.770;9.250;2022-08-19T05:29:18;19.50;99.90
67273;DHT22;54190;49.770;9.250;2022-08-19T05:31:48;19.50;99.90
67273;DHT22;54190;49.770;9.250;2022-08-19T05:34:18;19.50;99.90
67273;DHT22;54190;49.770;9.250;2022-08-19T05:36:45;19.60;99.90
67273;DHT22;54190;49.770;9.250;2022-08-19T05:39:14;19.60;99.90
67273;DHT22;54190;49.770;9.250;2022-08-19T05:41:46;19.60;99.90
67273;DHT22;54190;49.770;9.250;2022-08-19T05:44:14;19.60;99.90
67273;DHT22;54190;49.770;9.250;2022-08-19T05:46:43;19.70;99.90
67273;DHT22;54190;49.770;9.250;2022-08-19T05:49:09;19.70;99.90
67273;DHT22;54190;49.770;9.250;2022-08-19T05:51:36;19.70;99.90
67273;DHT22;54190;49.770;9.250;2022-08-19T05:54:04;19.70;99.90
67273;DHT22;54190;49.770;9.250;2022-08-19T05:56:31;19.70;99.90
67273;DHT22;54190;49.770;9.250;2022-08-19T05:58:58;19.80;99.90
67273;DHT22;54190;49.770;9.250;2022-08-19T06:01:26;19.80;99.90
67273;DHT22;54190;49.770;9.250;2022-08-19T06:03:52;19.80;99.90
67273;DHT22;54190;49.770;9.250;2022-08-19T06:06:19;19.80;99.90
67273;DHT22;54190;49.770;9.250;2022-08-19T06:08:45;19.80;99.90
67273;DHT22;54190;49.770;9.250;2022-08-19T06:14:05;19.80;99.90
67273;DHT22;54190;49.770;9.250;2022-08-19T06:16:37;19.80;99.90
67273;DHT22;54190;49.770;9.250;2022-08-19T06:19:07;19.90;99.90
67273;DHT22;54190;49.770;9.250;2022-08-19T06:21:35;19.90;99.90
67273;DHT22;54190;49.770;9.250;2022-08-19T06:24:06;19.90;99.90
67273;DHT22;54190;49.770;9.250;2022-08-19T06:26:34;19.90;99.90
67273;DHT22;54190;49.770;9.250;2022-08-19T06:29:01;19.90;99.90
67273;DHT22;54190;49.770;9.250;2022-08-19T06:31:28;19.90;99.90
67273;DHT22;54190;49.770;9.250;2022-08-19T06:33:54;19.90;99.90
67273;DHT22;54190;49.770;9.250;2022-08-19T06:36:40;19.90;99.90
67273;DHT22;54190;49.770;9.250;2022-08-19T06:39:14;20.00;99.90
67273;DHT22;54190;49.770;9.250;2022-08-19T06:41:43;19.90;99.90
67273;DHT22;54190;49.770;9.250;2022-08-19T06:44:17;20.00;99.90
67273;DHT22;54190;49.770;9.250;2022-08-19T06:46:44;20.00;99.90
67273;DHT22;54190;49.770;9.250;2022-08-19T06:49:10;20.00;99.90
67273;DHT22;54190;49.770;9.250;2022-08-19T06:51:43;20.00;99.90
67273;DHT22;54190;49.770;9.250;2022-08-19T06:54:09;20.00;99.90
67273;DHT22;54190;49.770;9.250;2022-08-19T06:56:36;20.00;99.90
67273;DHT22;54190;49.770;9.250;2022-08-19T06:59:10;20.10;99.90
67273;DHT22;54190;49.770;9.250;2022-08-19T07:01:38;20.10;99.90
67273;DHT22;54190;49.770;9.250;2022-08-19T07:04:06;20.10;99.90
67273;DHT22;54190;49.770;9.250;2022-08-19T07:06:32;20.10;99.90
67273;DHT22;54190;49.770;9.250;2022-08-19T07:08:58;20.20;99.90
67273;DHT22;54190;49.770;9.250;2022-08-19T07:11:24;20.20;99.90
67273;DHT22;54190;49.770;9.250;2022-08-19T07:13:50;20.20;99.90
67273;DHT22;54190;49.770;9.250;2022-08-19T07:16:18;20.20;99.90
67273;DHT22;54190;49.770;9.250;2022-08-19T07:18:48;20.20;99.90
67273;DHT22;54190;49.770;9.250;2022-08-19T07:21:20;20.20;99.90
67273;DHT22;54190;49.770;9.250;2022-08-19T07:23:47;20.20;99.90
67273;DHT22;54190;49.770;9.250;2022-08-19T07:26:17;20.20;99.90
67273;DHT22;54190;49.770;9.250;2022-08-19T07:28:43;20.30;99.90
67273;DHT22;54190;49.770;9.250;2022-08-19T07:31:14;20.30;99.90
67273;DHT22;54190;49.770;9.250;2022-08-19T07:33:41;20.30;99.90
67273;DHT22;54190;49.770;9.250;2022-08-19T07:36:10;20.30;99.90
67273;DHT22;54190;49.770;9.250;2022-08-19T07:38:44;20.30;99.90
67273;DHT22;54190;49.770;9.250;2022-08-19T07:41:20;20.40;99.90
67273;DHT22;54190;49.770;9.250;2022-08-19T07:43:47;20.50;99.90
67273;DHT22;54190;49.770;9.250;2022-08-19T07:46:13;20.60;99.90
67273;DHT22;54190;49.770;9.250;2022-08-19T07:48:41;20.70;99.90
67273;DHT22;54190;49.770;9.250;2022-08-19T07:51:10;20.80;99.90
67273;DHT22;54190;49.770;9.250;2022-08-19T07:53:37;20.90;99.90
67273;DHT22;54190;49.770;9.250;2022-08-19T07:56:04;20.90;99.90
67273;DHT22;54190;49.770;9.250;2022-08-19T07:58:37;20.90;99.90
67273;DHT22;54190;49.770;9.250;2022-08-19T08:01:05;21.00;99.90
67273;DHT22;54190;49.770;9.250;2022-08-19T08:03:31;21.00;99.90
67273;DHT22;54190;49.770;9.250;2022-08-19T08:06:15;21.10;99.90
67273;DHT22;54190;49.770;9.250;2022-08-19T08:09:01;21.10;99.90
67273;DHT22;54190;49.770;9.250;2022-08-19T08:11:39;21.30;99.90
67273;DHT22;54190;49.770;9.250;2022-08-19T08:14:06;21.40;99.90
67273;DHT22;54190;49.770;9.250;2022-08-19T08:16:38;21.40;99.90
67273;DHT22;54190;49.770;9.250;2022-08-19T08:19:05;21.50;99.90
67273;DHT22;54190;49.770;9.250;2022-08-19T08:21:33;21.60;99.90
67273;DHT22;54190;49.770;9.250;2022-08-19T08:23:59;21.60;99.90
67273;DHT22;54190;49.770;9.250;2022-08-19T08:26:25;21.70;99.90
67273;DHT22;54190;49.770;9.250;2022-08-19T08:28:52;21.70;99.90
67273;DHT22;54190;49.770;9.250;2022-08-19T08:31:18;21.70;99.90
67273;DHT22;54190;49.770;9.250;2022-08-19T08:33:45;21.80;99.90
67273;DHT22;54190;49.770;9.250;2022-08-19T08:36:12;21.90;99.90
67273;DHT22;54190;49.770;9.250;2022-08-19T08:38:40;21.90;99.90
67273;DHT22;54190;49.770;9.250;2022-08-19T08:43:56;22.20;99.90
67273;DHT22;54190;49.770;9.250;2022-08-19T08:46:51;22.30;99.90
67273;DHT22;54190;49.770;9.250;2022-08-19T08:49:38;22.50;99.90
67273;DHT22;54190;49.770;9.250;2022-08-19T08:52:34;22.60;99.90
67273;DHT22;54190;49.770;9.250;2022-08-19T08:55:07;22.70;99.90
67273;DHT22;54190;49.770;9.250;2022-08-19T09:02:55;23.00;99.90
67273;DHT22;54190;49.770;9.250;2022-08-19T09:05:30;23.20;99.90
67273;DHT22;54190;49.770;9.250;2022-08-19T09:08:16;23.10;99.90
67273;DHT22;54190;49.770;9.250;2022-08-19T09:10:54;23.10;99.90
67273;DHT22;54190;49.770;9.250;2022-08-19T09:13:44;23.10;99.90
67273;DHT22;54190;49.770;9.250;2022-08-19T09:16:18;23.00;99.90
67273;DHT22;54190;49.770;9.250;2022-08-19T09:18:49;23.10;99.90
67273;DHT22;54190;49.770;9.250;2022-08-19T09:21:20;23.00;99.90
67273;DHT22;54190;49.770;9.250;2022-08-19T09:23:48;23.10;99.90
67273;DHT22;54190;49.770;9.250;2022-08-19T09:26:18;23.10;99.90
67273;DHT22;54190;49.770;9.250;2022-08-19T09:28:46;23.10;99.90
67273;DHT22;54190;49.770;9.250;2022-08-19T09:31:23;23.10;99.90
67273;DHT22;54190;49.770;9.250;2022-08-19T09:33:50;23.20;99.90
67273;DHT22;54190;49.770;9.250;2022-08-19T09:36:18;23.10;99.90
67273;DHT22;54190;49.770;9.250;2022-08-19T09:38:44;23.20;99.90
67273;DHT22;54190;49.770;9.250;2022-08-19T09:41:13;23.20;99.60
67273;DHT22;54190;49.770;9.250;2022-08-19T09:43:41;23.30;99.80
67273;DHT22;54190;49.770;9.250;2022-08-19T09:46:08;23.30;99.90
67273;DHT22;54190;49.770;9.250;2022-08-19T09:48:39;23.30;99.00
67273;DHT22;54190;49.770;9.250;2022-08-19T09:51:10;23.40;98.50
67273;DHT22;54190;49.770;9.250;2022-08-19T09:53:38;23.40;98.40
67273;DHT22;54190;49.770;9.250;2022-08-19T09:56:05;23.40;98.70
67273;DHT22;54190;49.770;9.250;2022-08-19T09:58:32;23.30;98.20
67273;DHT22;54190;49.770;9.250;2022-08-19T10:01:00;23.30;98.90
67273;DHT22;54190;49.770;9.250;2022-08-19T10:03:28;23.40;98.50
67273;DHT22;54190;49.770;9.250;2022-08-19T10:05:54;23.50;97.70
67273;DHT22;54190;49.770;9.250;2022-08-19T10:08:24;23.50;97.70
67273;DHT22;54190;49.770;9.250;2022-08-19T10:10:54;23.40;98.40
67273;DHT22;54190;49.770;9.250;2022-08-19T10:13:22;23.50;98.10
67273;DHT22;54190;49.770;9.250;2022-08-19T10:15:56;23.60;97.70
67273;DHT22;54190;49.770;9.250;2022-08-19T10:18:27;23.60;97.70
67273;DHT22;54190;49.770;9.250;2022-08-19T10:21:05;23.60;97.50
67273;DHT22;54190;49.770;9.250;2022-08-19T10:23:34;23.70;97.80
67273;DHT22;54190;49.770;9.250;2022-08-19T10:26:00;23.70;98.20
67273;DHT22;54190;49.770;9.250;2022-08-19T10:28:26;23.80;98.00
67273;DHT22;54190;49.770;9.250;2022-08-19T10:30:52;24.00;97.20
67273;DHT22;54190;49.770;9.250;2022-08-19T10:33:18;24.10;97.20
67273;DHT22;54190;49.770;9.250;2022-08-19T10:35:44;24.10;96.80
67273;DHT22;54190;49.770;9.250;2022-08-19T10:38:12;24.30;96.50
67273;DHT22;54190;49.770;9.250;2022-08-19T10:40:37;24.30;96.60
67273;DHT22;54190;49.770;9.250;2022-08-19T10:43:04;24.40;96.10
67273;DHT22;54190;49.770;9.250;2022-08-19T10:45:30;24.60;95.40
67273;DHT22;54190;49.770;9.250;2022-08-19T10:47:56;24.70;95.60
67273;DHT22;54190;49.770;9.250;2022-08-19T10:50:21;24.80;96.10
67273;DHT22;54190;49.770;9.250;2022-08-19T10:53:07;24.90;94.80
67273;DHT22;54190;49.770;9.250;2022-08-19T10:55:34;24.90;95.10
67273;DHT22;54190;49.770;9.250;2022-08-19T10:58:20;24.90;94.20
67273;DHT22;54190;49.770;9.250;2022-08-19T11:00:53;24.80;94.70
67273;DHT22;54190;49.770;9.250;2022-08-19T11:03:20;24.70;95.10
67273;DHT22;54190;49.770;9.250;2022-08-19T11:05:45;24.70;94.10
67273;DHT22;54190;49.770;9.250;2022-08-19T11:08:11;24.80;93.50
67273;DHT22;54190;49.770;9.250;2022-08-19T11:10:41;24.70;93.50
67273;DHT22;54190;49.770;9.250;2022-08-19T11:13:08;24.80;93.20
67273;DHT22;54190;49.770;9.250;2022-08-19T11:15:33;24.80;92.90
67273;DHT22;54190;49.770;9.250;2022-08-19T11:17:59;24.80;93.20
67273;DHT22;54190;49.770;9.250;2022-08-19T11:20:25;24.90;92.90
67273;DHT22;54190;49.770;9.250;2022-08-19T11:22:52;24.90;93.10
67273;DHT22;54190;49.770;9.250;2022-08-19T11:25:19;25.00;93.90
67273;DHT22;54190;49.770;9.250;2022-08-19T11:27:45;25.10;91.70
67273;DHT22;54190;49.770;9.250;2022-08-19T11:30:13;25.30;92.10
67273;DHT22;54190;49.770;9.250;2022-08-19T11:32:40;25.40;91.90
67273;DHT22;54190;49.770;9.250;2022-08-19T11:35:06;25.60;91.40
67273;DHT22;54190;49.770;9.250;2022-08-19T11:37:32;25.60;90.80
67273;DHT22;54190;49.770;9.250;2022-08-19T11:40:04;25.70;90.90
67273;DHT22;54190;49.770;9.250;2022-08-19T11:42:30;25.80;90.80
67273;DHT22;54190;49.770;9.250;2022-08-19T11:45:14;25.90;90.30
67273;DHT22;54190;49.770;9.250;2022-08-19T11:47:40;25.90;90.60
67273;DHT22;54190;49.770;9.250;2022-08-19T11:50:06;26.00;90.80
67273;DHT22;54190;49.770;9.250;2022-08-19T11:52:32;26.10;88.70
67273;DHT22;54190;49.770;9.250;2022-08-19T11:54:57;26.10;88.40
67273;DHT22;54190;49.770;9.250;2022-08-19T11:57:23;26.10;90.20
67273;DHT22;54190;49.770;9.250;2022-08-19T11:59:50;26.20;89.30
67273;DHT22;54190;49.770;9.250;2022-08-19T12:02:16;26.40;88.60
67273;DHT22;54190;49.770;9.250;2022-08-19T12:04:42;26.50;88.50
67273;DHT22;54190;49.770;9.250;2022-08-19T12:07:08;26.70;88.30
67273;DHT22;54190;49.770;9.250;2022-08-19T12:09:33;26.80;87.40
67273;DHT22;54190;49.770;9.250;2022-08-19T12:12:00;27.00;85.80
67273;DHT22;54190;49.770;9.250;2022-08-19T12:14:27;27.00;86.00
67273;DHT22;54190;49.770;9.250;2022-08-19T12:16:55;27.10;87.30
67273;DHT22;54190;49.770;9.250;2022-08-19T12:19:21;27.10;83.70
67273;DHT22;54190;49.770;9.250;2022-08-19T12:21:47;26.90;84.30
67273;DHT22;54190;49.770;9.250;2022-08-19T12:24:13;26.80;84.30
67273;DHT22;54190;49.770;9.250;2022-08-19T12:26:39;26.80;83.80
67273;DHT22;54190;49.770;9.250;2022-08-19T12:29:05;26.80;83.10
67273;DHT22;54190;49.770;9.250;2022-08-19T12:31:31;26.80;85.50
67273;DHT22;54190;49.770;9.250;2022-08-19T12:33:57;26.70;83.10
67273;DHT22;54190;49.770;9.250;2022-08-19T12:36:23;26.70;82.80
67273;DHT22;54190;49.770;9.250;2022-08-19T12:38:49;26.50;82.40
67273;DHT22;54190;49.770;9.250;2022-08-19T12:41:17;26.40;84.20
67273;DHT22;54190;49.770;9.250;2022-08-19T12:43:43;26.30;85.90
67273;DHT22;54190;49.770;9.250;2022-08-19T12:46:11;26.20;87.60
67273;DHT22;54190;49.770;9.250;2022-08-19T12:48:38;26.10;85.00
67273;DHT22;54190;49.770;9.250;2022-08-19T12:51:10;26.20;85.80
67273;DHT22;54190;49.770;9.250;2022-08-19T12:53:36;26.10;84.70
67273;DHT22;54190;49.770;9.250;2022-08-19T12:56:02;26.20;83.80
67273;DHT22;54190;49.770;9.250;2022-08-19T12:58:29;26.20;83.60
67273;DHT22;54190;49.770;9.250;2022-08-19T13:00:54;26.20;85.10
67273;DHT22;54190;49.770;9.250;2022-08-19T13:03:21;26.10;84.80
67273;DHT22;54190;49.770;9.250;2022-08-19T13:05:52;26.00;85.00
67273;DHT22;54190;49.770;9.250;2022-08-19T13:08:18;26.00;86.10
67273;DHT22;54190;49.770;9.250;2022-08-19T13:10:44;26.00;85.80
67273;DHT22;54190;49.770;9.250;2022-08-19T13:13:10;26.00;86.40
67273;DHT22;54190;49.770;9.250;2022-08-19T13:15:39;26.10;83.80
67273;DHT22;54190;49.770;9.250;2022-08-19T13:18:06;26.10;85.40
67273;DHT22;54190;49.770;9.250;2022-08-19T13:20:32;26.10;84.30
67273;DHT22;54190;49.770;9.250;2022-08-19T13:22:58;26.00;84.30
67273;DHT22;54190;49.770;9.250;2022-08-19T13:25:24;26.00;85.40
67273;DHT22;54190;49.770;9.250;2022-08-19T13:27:51;26.00;87.50
67273;DHT22;54190;49.770;9.250;2022-08-19T13:30:18;25.90;86.90
67273;DHT22;54190;49.770;9.250;2022-08-19T13:33:03;25.90;86.60
67273;DHT22;54190;49.770;9.250;2022-08-19T13:35:51;25.90;85.20
67273;DHT22;54190;49.770;9.250;2022-08-19T13:38:24;25.90;85.40
67273;DHT22;54190;49.770;9.250;2022-08-19T13:40:51;26.00;84.10
67273;DHT22;54190;49.770;9.250;2022-08-19T13:43:19;25.90;83.50
67273;DHT22;54190;49.770;9.250;2022-08-19T13:45:47;25.90;83.90
67273;DHT22;54190;49.770;9.250;2022-08-19T13:48:14;26.00;82.70
67273;DHT22;54190;49.770;9.250;2022-08-19T13:50:43;26.00;83.50
67273;DHT22;54190;49.770;9.250;2022-08-19T13:53:10;26.10;81.70
67273;DHT22;54190;49.770;9.250;2022-08-19T13:55:43;26.20;81.50
67273;DHT22;54190;49.770;9.250;2022-08-19T13:58:10;26.20;82.30
67273;DHT22;54190;49.770;9.250;2022-08-19T14:00:39;26.10;81.90
67273;DHT22;54190;49.770;9.250;2022-08-19T14:03:05;26.00;83.00
67273;DHT22;54190;49.770;9.250;2022-08-19T14:05:32;26.10;81.70
67273;DHT22;54190;49.770;9.250;2022-08-19T14:07:58;26.30;81.10
67273;DHT22;54190;49.770;9.250;2022-08-19T14:10:25;26.50;80.90
67273;DHT22;54190;49.770;9.250;2022-08-19T14:13:00;26.60;79.30
67273;DHT22;54190;49.770;9.250;2022-08-19T14:15:27;26.60;77.30
67273;DHT22;54190;49.770;9.250;2022-08-19T14:17:53;26.60;78.30
67273;DHT22;54190;49.770;9.250;2022-08-19T14:20:20;26.60;78.10
67273;DHT22;54190;49.770;9.250;2022-08-19T14:22:47;26.60;77.20
67273;DHT22;54190;49.770;9.250;2022-08-19T14:25:20;26.60;77.50
67273;DHT22;54190;49.770;9.250;2022-08-19T14:27:47;26.60;77.10
67273;DHT22;54190;49.770;9.250;2022-08-19T14:30:18;26.60;78.10
67273;DHT22;54190;49.770;9.250;2022-08-19T14:32:44;26.60;75.50
67273;DHT22;54190;49.770;9.250;2022-08-19T14:35:11;26.50;76.30
67273;DHT22;54190;49.770;9.250;2022-08-19T14:37:38;26.60;76.60
67273;DHT22;54190;49.770;9.250;2022-08-19T14:40:06;26.60;76.20
67273;DHT22;54190;49.770;9.250;2022-08-19T14:42:33;26.60;75.30
67273;DHT22;54190;49.770;9.250;2022-08-19T14:44:59;26.50;76.20
67273;DHT22;54190;49.770;9.250;2022-08-19T14:47:25;26.40;77.80
67273;DHT22;54190;49.770;9.250;2022-08-19T14:49:52;26.40;76.90
67273;DHT22;54190;49.770;9.250;2022-08-19T14:52:17;26.50;74.80
67273;DHT22;54190;49.770;9.250;2022-08-19T14:54:43;26.40;74.40
67273;DHT22;54190;49.770;9.250;2022-08-19T14:57:12;26.50;74.00
67273;DHT22;54190;49.770;9.250;2022-08-19T14:59:38;26.50;73.90
67273;DHT22;54190;49.770;9.250;2022-08-19T15:02:04;26.40;73.90
67273;DHT22;54190;49.770;9.250;2022-08-19T15:04:29;26.40;74.70
67273;DHT22;54190;49.770;9.250;2022-08-19T15:06:55;26.50;74.00
67273;DHT22;54190;49.770;9.250;2022-08-19T15:09:21;26.40;75.00
67273;DHT22;54190;49.770;9.250;2022-08-19T15:11:46;26.40;74.10
67273;DHT22;54190;49.770;9.250;2022-08-19T15:14:15;26.40;73.50
67273;DHT22;54190;49.770;9.250;2022-08-19T15:16:42;26.30;73.50
67273;DHT22;54190;49.770;9.250;2022-08-19T15:19:08;26.20;73.60
67273;DHT22;54190;49.770;9.250;2022-08-19T15:21:34;26.20;75.80
67273;DHT22;54190;49.770;9.250;2022-08-19T15:24:02;26.00;79.90
67273;DHT22;54190;49.770;9.250;2022-08-19T15:26:28;26.00;81.00
67273;DHT22;54190;49.770;9.250;2022-08-19T15:28:58;25.90;80.40
67273;DHT22;54190;49.770;9.250;2022-08-19T15:31:25;25.90;78.70
67273;DHT22;54190;49.770;9.250;2022-08-19T15:33:53;25.90;77.30
67273;DHT22;54190;49.770;9.250;2022-08-19T15:36:21;25.80;77.00
67273;DHT22;54190;49.770;9.250;2022-08-19T15:38:48;25.90;76.10
67273;DHT22;54190;49.770;9.250;2022-08-19T15:41:19;25.80;77.40
67273;DHT22;54190;49.770;9.250;2022-08-19T15:43:50;25.80;78.50
67273;DHT22;54190;49.770;9.250;2022-08-19T15:46:22;25.80;76.80
67273;DHT22;54190;49.770;9.250;2022-08-19T15:48:48;25.80;73.80